createdAt,value
2018-04-28T00:01:09.403Z,4.20
2018-04-28T00:03:38.744Z,4.20
2018-04-28T00:06:08.016Z,4.50
2018-04-28T00:08:37.288Z,4.70
2018-04-28T00:11:06.589Z,4.93
2018-04-28T00:13:35.857Z,4.70
2018-04-28T00:16:16.658Z,4.70
2018-04-28T00:18:49.233Z,3.77
2018-04-28T00:21:19.220Z,3.80
2018-04-28T00:23:48.435Z,4.13
2018-04-28T00:26:17.653Z,3.73
2018-04-28T00:29:03.584Z,4.20
2018-04-28T00:31:33.711Z,4.60
2018-04-28T00:34:08.500Z,4.23
2018-04-28T00:36:42.032Z,4.37
2018-04-28T00:39:11.346Z,4.73
2018-04-28T00:41:42.489Z,4.40
2018-04-28T00:44:12.866Z,4.60
2018-04-28T00:46:48.668Z,4.40
2018-04-28T00:49:22.763Z,4.53
2018-04-28T00:51:52.834Z,4.10
2018-04-28T00:57:38.784Z,4.10
2018-04-28T01:00:17.766Z,4.10
2018-04-28T01:02:47.818Z,4.53
2018-04-28T01:05:29.884Z,4.83
2018-04-28T01:07:59.866Z,4.50
2018-04-28T01:10:31.682Z,4.50
2018-04-28T01:13:06.551Z,4.50
2018-04-28T01:15:36.801Z,4.30
2018-04-28T01:18:25.736Z,4.80
2018-04-28T01:21:00.673Z,4.63
2018-04-28T01:23:38.453Z,4.07
2018-04-28T01:26:19.334Z,4.57
2018-04-28T01:28:48.566Z,4.37
2018-04-28T01:31:23.703Z,4.60
2018-04-28T01:37:19.414Z,4.47
2018-04-28T01:39:50.648Z,4.30
2018-04-28T01:45:36.680Z,4.77
2018-04-28T01:48:26.414Z,4.07
2018-04-28T01:51:13.410Z,4.10
2018-04-28T01:53:47.277Z,4.70
2018-04-28T01:56:17.321Z,4.40
2018-04-28T01:58:59.372Z,4.70
2018-04-28T02:01:30.172Z,4.50
2018-04-28T02:04:14.315Z,4.23
2018-04-28T02:06:59.327Z,4.40
2018-04-28T02:09:29.307Z,4.13
2018-04-28T02:12:12.468Z,4.33
2018-04-28T02:14:48.497Z,4.70
2018-04-28T02:17:17.673Z,4.23
2018-04-28T02:23:07.676Z,4.30
2018-04-28T02:25:45.895Z,4.37
2018-04-28T02:28:23.848Z,4.33
2018-04-28T02:31:02.060Z,4.57
2018-04-28T02:33:35.176Z,4.30
2018-04-28T02:36:16.194Z,4.80
2018-04-28T02:41:44.297Z,4.47
2018-04-28T02:44:25.532Z,4.30
2018-04-28T02:46:57.543Z,4.37
2018-04-28T02:49:46.565Z,5.00
2018-04-28T02:52:37.536Z,3.90
2018-04-28T02:55:16.347Z,4.43
2018-04-28T02:57:53.290Z,4.00
2018-04-28T03:00:23.343Z,4.20
2018-04-28T03:02:55.617Z,4.47
2018-04-28T03:05:34.110Z,4.77
2018-04-28T03:08:23.926Z,4.37
2018-04-28T03:10:56.247Z,4.70
2018-04-28T03:13:26.115Z,4.23
2018-04-28T03:15:56.896Z,4.40
2018-04-28T03:18:37.712Z,4.30
2018-04-28T03:21:08.246Z,4.47
2018-04-28T03:23:38.116Z,4.37
2018-04-28T03:26:16.978Z,4.00
2018-04-28T03:29:03.703Z,4.70
2018-04-28T03:31:34.575Z,4.13
2018-04-28T03:34:12.341Z,3.80
2018-04-28T03:39:37.100Z,3.70
2018-04-28T03:42:14.806Z,4.20
2018-04-28T03:45:06.431Z,4.23
2018-04-28T03:47:37.959Z,4.40
2018-04-28T03:50:22.855Z,4.30
2018-04-28T03:52:52.858Z,4.40
2018-04-28T03:55:22.582Z,4.67
2018-04-28T03:58:04.173Z,3.87
2018-04-28T04:00:45.278Z,4.60
2018-04-28T04:03:30.030Z,4.20
2018-04-28T04:06:16.552Z,4.43
2018-04-28T04:12:01.751Z,4.20
2018-04-28T04:17:42.161Z,4.43
2018-04-28T04:20:20.960Z,4.20
2018-04-28T04:22:56.025Z,4.00
2018-04-28T04:28:44.244Z,3.97
2018-04-28T04:37:42.757Z,4.37
2018-04-28T04:40:19.648Z,4.87
2018-04-28T04:46:12.072Z,4.63
2018-04-28T04:48:41.131Z,4.50
2018-04-28T04:51:44.966Z,4.43
2018-04-28T04:54:20.853Z,5.50
2018-04-28T04:56:56.441Z,4.70
2018-04-28T04:59:31.325Z,4.90
2018-04-28T05:02:09.164Z,4.37
2018-04-28T05:04:49.689Z,5.27
2018-04-28T05:07:45.359Z,5.77
2018-04-28T05:10:17.070Z,5.47
2018-04-28T05:16:02.444Z,4.30
2018-04-28T05:18:39.010Z,3.90
2018-04-28T05:21:28.903Z,4.27
2018-04-28T05:27:27.422Z,4.30
2018-04-28T05:30:17.826Z,4.27
2018-04-28T05:32:58.722Z,4.27
2018-04-28T05:38:54.933Z,4.00
2018-04-28T05:41:45.657Z,3.80
2018-04-28T05:47:44.549Z,4.27
2018-04-28T05:50:38.888Z,3.57
2018-04-28T05:53:12.751Z,3.30
2018-04-28T05:58:55.848Z,4.70
2018-04-28T06:01:36.455Z,3.60
2018-04-28T06:04:26.680Z,3.50
2018-04-28T06:07:23.163Z,3.53
2018-04-28T06:09:59.968Z,3.23
2018-04-28T06:12:33.534Z,3.37
2018-04-28T06:18:24.694Z,3.60
2018-04-28T06:20:53.625Z,3.63
2018-04-28T06:23:22.556Z,3.70
2018-04-28T06:25:51.622Z,3.43
2018-04-28T06:28:20.468Z,3.60
2018-04-28T06:30:49.430Z,3.60
2018-04-28T06:33:18.375Z,3.13
2018-04-28T06:35:48.153Z,2.77
2018-04-28T06:38:17.076Z,3.00
2018-04-28T06:40:46.728Z,2.30
2018-04-28T06:43:15.781Z,2.73
2018-04-28T06:45:45.488Z,2.83
2018-04-28T06:48:15.319Z,2.80
2018-04-28T06:50:44.397Z,2.70
2018-04-28T06:53:13.400Z,3.13
2018-04-28T06:55:42.485Z,2.63
2018-04-28T06:58:12.299Z,2.07
2018-04-28T07:00:41.949Z,2.37
2018-04-28T07:03:10.853Z,2.03
2018-04-28T07:05:39.901Z,2.13
2018-04-28T07:08:08.883Z,2.07
2018-04-28T07:10:38.543Z,1.50
2018-04-28T07:13:07.498Z,2.10
2018-04-28T07:15:36.830Z,2.03
2018-04-28T07:18:05.767Z,2.00
2018-04-28T07:20:34.727Z,1.90
2018-04-28T07:23:03.675Z,2.10
2018-04-28T07:25:32.607Z,1.77
2018-04-28T07:28:01.554Z,1.90
2018-04-28T07:30:30.668Z,1.73
2018-04-28T07:32:59.591Z,1.57
2018-04-28T07:35:28.582Z,2.00
2018-04-28T07:37:57.649Z,1.97
2018-04-28T07:40:26.676Z,1.90
2018-04-28T07:42:55.709Z,1.93
2018-04-28T07:45:25.405Z,1.60
2018-04-28T07:47:54.464Z,1.90
2018-04-28T07:50:23.607Z,1.70
2018-04-28T07:52:53.355Z,1.40
2018-04-28T07:55:22.352Z,1.90
2018-04-28T07:57:51.339Z,2.00
2018-04-28T08:00:21.362Z,1.67
2018-04-28T08:02:50.723Z,1.83
2018-04-28T08:05:20.535Z,1.90
2018-04-28T08:07:49.725Z,1.60
2018-04-28T08:10:18.829Z,1.80
2018-04-28T08:12:47.813Z,1.73
2018-04-28T08:15:17.033Z,1.40
2018-04-28T08:17:46.206Z,1.40
2018-04-28T08:20:16.269Z,1.70
2018-04-28T08:22:45.757Z,1.80
2018-04-28T08:25:14.722Z,1.90
2018-04-28T08:27:44.476Z,2.00
2018-04-28T08:30:13.381Z,1.77
2018-04-28T08:32:42.580Z,1.70
2018-04-28T08:35:11.662Z,1.70
2018-04-28T08:37:40.533Z,1.60
2018-04-28T08:40:09.508Z,1.60
2018-04-28T08:42:39.268Z,1.77
2018-04-28T08:45:08.918Z,1.80
2018-04-28T08:47:37.883Z,1.60
2018-04-28T08:50:07.143Z,1.60
2018-04-28T08:52:36.322Z,1.60
2018-04-28T08:55:06.188Z,1.77
2018-04-28T08:57:35.432Z,1.70
2018-04-28T09:00:16.924Z,1.97
2018-04-28T09:02:45.856Z,1.57
2018-04-28T09:05:14.957Z,1.70
2018-04-28T09:07:48.563Z,1.50
2018-04-28T09:10:17.904Z,1.80
2018-04-28T09:12:47.648Z,1.80
2018-04-28T09:15:18.500Z,1.97
2018-04-28T09:17:48.572Z,1.50
2018-04-28T09:20:17.748Z,2.10
2018-04-28T09:22:47.083Z,1.47
2018-04-28T09:25:16.262Z,1.70
2018-04-28T09:27:45.539Z,1.53
2018-04-28T09:30:15.485Z,1.60
2018-04-28T09:32:44.800Z,1.63
2018-04-28T09:35:14.084Z,1.70
2018-04-28T09:37:43.384Z,1.70
2018-04-28T09:40:12.685Z,1.80
2018-04-28T09:42:41.906Z,1.63
2018-04-28T09:45:11.101Z,1.83
2018-04-28T09:47:40.382Z,1.53
2018-04-28T09:50:09.786Z,1.80
2018-04-28T09:52:38.977Z,1.63
2018-04-28T09:55:08.318Z,2.10
2018-04-28T09:57:37.513Z,1.70
2018-04-28T10:00:23.671Z,1.63
2018-04-28T10:02:53.179Z,1.70
2018-04-28T10:05:26.164Z,1.70
2018-04-28T10:07:55.468Z,1.80
2018-04-28T10:10:24.793Z,2.00
2018-04-28T10:12:53.979Z,1.90
2018-04-28T10:15:23.177Z,1.73
2018-04-28T10:17:52.384Z,2.03
2018-04-28T10:20:21.643Z,2.13
2018-04-28T10:22:50.829Z,2.00
2018-04-28T10:25:20.044Z,1.80
2018-04-28T10:27:49.359Z,1.80
2018-04-28T10:30:18.706Z,2.27
2018-04-28T10:32:48.670Z,2.17
2018-04-28T10:35:18.144Z,1.97
2018-04-28T10:37:47.268Z,1.97
2018-04-28T10:40:16.576Z,2.10
2018-04-28T10:42:45.871Z,2.00
2018-04-28T10:45:15.008Z,2.10
2018-04-28T10:47:44.901Z,2.07
2018-04-28T10:50:14.084Z,1.90
2018-04-28T10:52:43.429Z,2.10
2018-04-28T10:55:12.675Z,2.10
2018-04-28T10:57:42.132Z,1.87
2018-04-28T11:00:12.202Z,2.10
2018-04-28T11:02:41.416Z,2.03
2018-04-28T11:05:10.584Z,1.90
2018-04-28T11:07:39.792Z,2.17
2018-04-28T11:10:09.094Z,2.10
2018-04-28T11:12:39.205Z,1.90
2018-04-28T11:15:08.345Z,1.93
2018-04-28T11:17:37.634Z,2.00
2018-04-28T11:20:10.645Z,1.70
2018-04-28T11:22:40.718Z,1.80
2018-04-28T11:25:09.939Z,1.90
2018-04-28T11:27:42.135Z,1.97
2018-04-28T11:30:12.083Z,1.93
2018-04-28T11:32:41.292Z,2.20
2018-04-28T11:35:11.237Z,2.13
2018-04-28T11:37:40.623Z,1.80
2018-04-28T11:40:11.816Z,2.20
2018-04-28T11:42:41.099Z,2.30
2018-04-28T11:45:14.146Z,2.20
2018-04-28T11:47:43.369Z,2.17
2018-04-28T11:50:12.533Z,2.10
2018-04-28T11:52:41.811Z,2.23
2018-04-28T11:55:11.042Z,2.20
2018-04-28T11:57:40.423Z,2.50
2018-04-28T12:00:09.647Z,2.10
2018-04-28T12:02:38.991Z,3.50
2018-04-28T12:05:08.236Z,2.50
2018-04-28T12:07:37.374Z,2.07
2018-04-28T12:10:06.737Z,2.23
2018-04-28T12:12:36.223Z,2.10
2018-04-28T12:15:05.542Z,2.30
2018-04-28T12:17:34.844Z,2.23
2018-04-28T12:20:07.828Z,2.13
2018-04-28T12:22:37.030Z,2.13
2018-04-28T12:25:06.179Z,2.10
2018-04-28T12:27:35.523Z,2.10
2018-04-28T12:30:04.720Z,1.93
2018-04-28T12:32:34.176Z,2.00
2018-04-28T12:35:03.325Z,2.23
2018-04-28T12:37:32.930Z,2.10
2018-04-28T12:40:04.982Z,2.47
2018-04-28T12:42:41.703Z,2.00
2018-04-28T12:45:10.820Z,2.35
2018-04-28T12:47:40.210Z,2.10
2018-04-28T12:50:10.173Z,2.37
2018-04-28T12:52:39.652Z,2.03
2018-04-28T12:55:09.704Z,2.08
2018-04-28T12:57:38.974Z,1.98
2018-04-28T13:00:08.253Z,2.45
2018-04-28T13:02:37.502Z,2.40
2018-04-28T13:05:07.032Z,2.50
2018-04-28T13:07:36.322Z,2.03
2018-04-28T13:10:06.500Z,2.20
2018-04-28T13:12:36.425Z,2.30
2018-04-28T13:15:05.747Z,2.17
2018-04-28T13:17:35.046Z,2.00
2018-04-28T13:20:04.473Z,2.13
2018-04-28T13:22:33.746Z,2.10
2018-04-28T13:25:02.892Z,2.30
2018-04-28T13:27:32.356Z,2.27
2018-04-28T13:30:01.511Z,1.93
2018-04-28T13:32:31.766Z,2.30
2018-04-28T13:35:00.968Z,2.13
2018-04-28T13:37:30.374Z,2.37
2018-04-28T13:39:59.666Z,2.23
2018-04-28T13:42:28.856Z,1.77
2018-04-28T13:44:58.986Z,2.30
2018-04-28T13:47:28.140Z,2.57
2018-04-28T13:49:58.263Z,2.00
2018-04-28T13:52:28.319Z,2.20
2018-04-28T13:54:58.439Z,2.30
2018-04-28T13:57:27.601Z,2.20
2018-04-28T13:59:57.066Z,2.30
2018-04-28T14:02:26.262Z,2.40
2018-04-28T14:04:55.744Z,2.40
2018-04-28T14:07:25.802Z,2.30
2018-04-28T14:09:55.059Z,2.27
2018-04-28T14:12:24.356Z,2.57
2018-04-28T14:14:53.494Z,2.20
2018-04-28T14:17:22.764Z,2.00
2018-04-28T14:19:52.158Z,2.30
2018-04-28T14:22:21.589Z,2.40
2018-04-28T14:24:50.811Z,2.40
2018-04-28T14:27:20.878Z,2.30
2018-04-28T14:29:53.928Z,2.10
2018-04-28T14:32:23.875Z,2.17
2018-04-28T14:34:53.091Z,2.30
2018-04-28T14:37:22.795Z,2.30
2018-04-28T14:39:51.987Z,2.20
2018-04-28T14:42:21.289Z,2.37
2018-04-28T14:44:50.493Z,2.20
2018-04-28T14:47:19.782Z,2.67
2018-04-28T14:49:49.022Z,2.40
2018-04-28T14:52:18.322Z,2.00
2018-04-28T14:54:47.692Z,2.50
2018-04-28T14:57:16.985Z,2.20
2018-04-28T14:59:46.408Z,2.20
2018-04-28T15:02:15.840Z,2.50
2018-04-28T15:04:45.793Z,2.30
2018-04-28T15:07:15.010Z,2.70
2018-04-28T15:09:45.803Z,2.70
2018-04-28T15:12:16.551Z,2.70
2018-04-28T15:14:46.888Z,2.50
2018-04-28T15:17:16.488Z,2.50
2018-04-28T15:19:45.708Z,2.80
2018-04-28T15:22:15.079Z,2.37
2018-04-28T15:24:45.531Z,2.23
2018-04-28T15:27:14.839Z,2.10
2018-04-28T15:29:43.971Z,2.67
2018-04-28T15:32:13.535Z,2.40
2018-04-28T15:34:42.735Z,2.30
2018-04-28T15:37:12.037Z,2.50
2018-04-28T15:39:41.488Z,2.50
2018-04-28T15:42:10.825Z,2.47
2018-04-28T15:44:40.140Z,2.60
2018-04-28T15:47:09.547Z,2.80
2018-04-28T15:49:38.856Z,2.40
2018-04-28T15:52:08.245Z,2.20
2018-04-28T15:54:37.608Z,2.00
2018-04-28T15:57:06.816Z,2.30
2018-04-28T15:59:36.859Z,2.33
2018-04-28T16:02:06.477Z,2.70
2018-04-28T16:04:35.675Z,2.47
2018-04-28T16:07:04.799Z,2.53
2018-04-28T16:09:34.228Z,2.47
2018-04-28T16:12:03.456Z,2.70
2018-04-28T16:14:32.650Z,2.20
2018-04-28T16:17:01.975Z,2.33
2018-04-28T16:19:31.140Z,2.60
2018-04-28T16:22:00.564Z,2.23
2018-04-28T16:24:29.743Z,2.60
2018-04-28T16:26:58.981Z,2.50
2018-04-28T16:29:28.182Z,2.30
2018-04-28T16:31:57.500Z,2.63
2018-04-28T16:34:27.528Z,3.50
2018-04-28T16:36:56.730Z,2.80
2018-04-28T16:39:26.099Z,3.13
2018-04-28T16:41:55.281Z,2.93
2018-04-28T16:44:24.783Z,3.07
2018-04-28T16:46:54.078Z,2.93
2018-04-28T16:49:23.236Z,2.63
2018-04-28T16:51:52.472Z,4.13
2018-04-28T16:54:21.729Z,3.77
2018-04-28T16:56:51.076Z,2.60
2018-04-28T16:59:20.274Z,2.80
2018-04-28T17:01:49.527Z,2.87
2018-04-28T17:04:18.757Z,2.37
2018-04-28T17:06:47.985Z,2.40
2018-04-28T17:09:17.269Z,3.10
2018-04-28T17:11:46.411Z,2.70
2018-04-28T17:14:15.633Z,3.00
2018-04-28T17:16:44.848Z,2.50
2018-04-28T17:19:14.162Z,2.40
2018-04-28T17:21:45.202Z,3.03
2018-04-28T17:24:14.366Z,2.33
2018-04-28T17:26:44.348Z,2.53
2018-04-28T17:29:13.883Z,2.80
2018-04-28T17:31:43.069Z,2.60
2018-04-28T17:34:12.307Z,2.60
2018-04-28T17:36:41.560Z,2.87
2018-04-28T17:39:10.725Z,2.80
2018-04-28T17:41:39.931Z,3.73
2018-04-28T17:44:09.358Z,2.50
2018-04-28T17:46:38.605Z,3.20
2018-04-28T17:49:11.291Z,2.70
2018-04-28T17:51:40.387Z,3.27
2018-04-28T17:54:09.584Z,4.00
2018-04-28T17:56:38.829Z,3.07
2018-04-28T17:59:08.193Z,3.00
2018-04-28T18:01:37.395Z,2.70
2018-04-28T18:04:06.578Z,2.50
2018-04-28T18:06:35.825Z,2.50
2018-04-28T18:09:05.058Z,2.73
2018-04-28T18:11:34.361Z,2.60
2018-04-28T18:14:03.604Z,2.73
2018-04-28T18:16:32.917Z,2.83
2018-04-28T18:19:06.579Z,3.03
2018-04-28T18:21:35.814Z,3.30
2018-04-28T18:24:05.980Z,3.23
2018-04-28T18:26:35.193Z,2.97
2018-04-28T18:29:11.690Z,2.87
2018-04-28T18:31:41.389Z,2.57
2018-04-28T18:34:10.783Z,3.60
2018-04-28T18:36:40.140Z,3.00
2018-04-28T18:39:13.686Z,3.27
2018-04-28T18:41:43.638Z,3.40
2018-04-28T18:44:13.744Z,3.20
2018-04-28T18:46:42.956Z,3.30
2018-04-28T18:49:12.218Z,3.27
2018-04-28T18:51:41.477Z,3.40
2018-04-28T18:54:10.718Z,3.30
2018-04-28T18:56:39.929Z,3.40
2018-04-28T18:59:09.177Z,3.03
2018-04-28T19:01:38.444Z,3.37
2018-04-28T19:04:08.438Z,3.40
2018-04-28T19:06:37.837Z,2.90
2018-04-28T19:09:07.226Z,3.30
2018-04-28T19:11:36.508Z,3.37
2018-04-28T19:14:05.768Z,3.20
2018-04-28T19:16:35.121Z,3.00
2018-04-28T19:19:04.435Z,2.90
2018-04-28T19:21:33.659Z,2.80
2018-04-28T19:24:04.365Z,3.27
2018-04-28T19:26:33.549Z,3.20
2018-04-28T19:29:02.708Z,3.60
2018-04-28T19:31:32.877Z,3.43
2018-04-28T19:34:02.171Z,3.53
2018-04-28T19:36:31.501Z,3.17
2018-04-28T19:39:00.732Z,3.23
2018-04-28T19:41:30.710Z,2.80
2018-04-28T19:43:59.963Z,3.40
2018-04-28T19:46:29.973Z,3.10
2018-04-28T19:48:59.222Z,3.97
2018-04-28T19:51:29.218Z,4.20
2018-04-28T19:53:58.451Z,3.37
2018-04-28T19:56:27.657Z,3.50
2018-04-28T19:58:57.791Z,3.67
2018-04-28T20:01:26.984Z,3.47
2018-04-28T20:03:57.160Z,3.60
2018-04-28T20:06:27.207Z,3.23
2018-04-28T20:08:56.455Z,3.70
2018-04-28T20:11:29.516Z,4.00
2018-04-28T20:13:58.859Z,3.23
2018-04-28T20:16:28.170Z,3.60
2018-04-28T20:18:57.362Z,3.67
2018-04-28T20:21:26.539Z,3.77
2018-04-28T20:24:07.726Z,3.40
2018-04-28T20:26:36.996Z,3.63
2018-04-28T20:29:06.304Z,3.80
2018-04-28T20:31:36.343Z,3.47
2018-04-28T20:34:05.758Z,3.73
2018-04-28T20:36:34.956Z,3.60
2018-04-28T20:39:04.255Z,3.63
2018-04-28T20:41:33.497Z,3.60
2018-04-28T20:44:02.689Z,3.77
2018-04-28T20:46:31.878Z,3.43
2018-04-28T20:49:01.078Z,3.53
2018-04-28T20:51:30.288Z,3.60
2018-04-28T20:53:59.532Z,3.40
2018-04-28T20:56:28.849Z,3.77
2018-04-28T20:58:58.064Z,3.60
2018-04-28T21:01:27.290Z,4.10
2018-04-28T21:03:56.546Z,3.50
2018-04-28T21:06:26.046Z,3.67
2018-04-28T21:08:55.252Z,4.23
2018-04-28T21:11:24.431Z,4.20
2018-04-28T21:13:53.618Z,3.47
2018-04-28T21:16:22.905Z,3.80
2018-04-28T21:18:52.240Z,3.83
2018-04-28T21:21:21.372Z,3.50
2018-04-28T21:23:50.583Z,3.80
2018-04-28T21:26:20.707Z,4.10
2018-04-28T21:28:50.676Z,4.07
2018-04-28T21:31:19.924Z,3.70
2018-04-28T21:33:49.890Z,4.63
2018-04-28T21:36:19.112Z,4.20
2018-04-28T21:38:48.341Z,3.90
2018-04-28T21:41:17.550Z,4.93
2018-04-28T21:43:46.781Z,4.40
2018-04-28T21:46:15.970Z,4.70
2018-04-28T21:48:45.180Z,4.50
2018-04-28T21:51:14.360Z,5.13
2018-04-28T21:53:43.565Z,4.50
2018-04-28T21:56:12.762Z,4.70
2018-04-28T21:58:41.948Z,4.67
2018-04-28T22:01:11.106Z,5.40
2018-04-28T22:03:40.349Z,5.73
2018-04-28T22:06:09.553Z,5.33
2018-04-28T22:08:41.600Z,4.80
2018-04-28T22:11:10.821Z,6.23
2018-04-28T22:13:40.122Z,5.60
2018-04-28T22:16:09.370Z,5.37
2018-04-28T22:18:38.658Z,5.17
2018-04-28T22:21:07.821Z,5.30
2018-04-28T22:23:37.040Z,5.03
2018-04-28T22:26:06.182Z,5.30
2018-04-28T22:28:36.253Z,5.00
2018-04-28T22:31:05.448Z,5.93
2018-04-28T22:33:34.684Z,5.40
2018-04-28T22:36:04.744Z,5.97
2018-04-28T22:38:34.043Z,5.57
2018-04-28T22:41:03.242Z,4.87
2018-04-28T22:43:32.480Z,4.73
2018-04-28T22:46:01.674Z,5.03
2018-04-28T22:48:31.652Z,4.50
2018-04-28T22:51:00.983Z,4.83
2018-04-28T22:53:30.161Z,4.47
2018-04-28T22:55:59.399Z,4.53
2018-04-28T22:58:29.366Z,4.17
2018-04-28T23:00:58.571Z,4.13
2018-04-28T23:03:27.774Z,4.63
2018-04-28T23:05:56.940Z,4.17
2018-04-28T23:08:26.156Z,3.90
2018-04-28T23:10:55.341Z,4.77
2018-04-28T23:13:24.661Z,5.00
2018-04-28T23:15:53.922Z,4.70
2018-04-28T23:18:25.839Z,4.80
2018-04-28T23:20:55.120Z,4.50
2018-04-28T23:23:24.322Z,4.80
2018-04-28T23:25:53.532Z,5.23
2018-04-28T23:28:22.816Z,5.53
2018-04-28T23:30:52.062Z,5.67
2018-04-28T23:33:22.128Z,5.50
2018-04-28T23:35:51.382Z,6.00
2018-04-28T23:38:20.653Z,6.13
2018-04-28T23:40:49.859Z,6.40
2018-04-28T23:43:19.058Z,6.13
2018-04-28T23:45:49.005Z,6.50
2018-04-28T23:48:21.161Z,6.13
2018-04-28T23:50:50.365Z,5.80
2018-04-28T23:53:19.582Z,5.30
2018-04-28T23:55:48.755Z,5.30
2018-04-28T23:58:18.922Z,5.33
